createdAt,value
2023-05-23T00:00:16.379Z,15.21
2023-05-23T00:02:45.144Z,15.17
2023-05-23T00:05:15.614Z,15.14
2023-05-23T00:07:45.488Z,15.13
2023-05-23T00:10:14.856Z,15.09
2023-05-23T00:12:43.167Z,15.05
2023-05-23T00:15:12.324Z,15.02
2023-05-23T00:17:40.661Z,14.98
2023-05-23T00:20:11.750Z,14.99
2023-05-23T00:22:43.242Z,14.96
2023-05-23T00:25:13.148Z,14.96
2023-05-23T00:27:41.452Z,14.97
2023-05-23T00:30:10.402Z,14.99
2023-05-23T00:32:38.800Z,15.02
2023-05-23T00:35:08.452Z,15.02
2023-05-23T00:37:36.793Z,14.98
2023-05-23T00:40:06.085Z,14.98
2023-05-23T00:42:35.809Z,14.97
2023-05-23T00:45:04.114Z,14.93
2023-05-23T00:47:32.616Z,14.89
2023-05-23T00:50:01.512Z,14.87
2023-05-23T00:52:29.811Z,14.82
2023-05-23T00:54:58.095Z,14.80
2023-05-23T00:57:26.496Z,14.80
2023-05-23T00:59:56.235Z,14.80
2023-05-23T01:02:25.304Z,14.78
2023-05-23T01:04:55.119Z,14.76
2023-05-23T01:07:23.748Z,14.77
2023-05-23T01:09:52.089Z,14.77
2023-05-23T01:12:22.676Z,14.75
2023-05-23T01:14:54.512Z,14.75
2023-05-23T01:17:26.119Z,14.73
2023-05-23T01:20:01.216Z,14.73
2023-05-23T01:22:40.810Z,14.70
2023-05-23T01:25:15.966Z,14.69
2023-05-23T01:27:50.961Z,14.70
2023-05-23T01:30:19.881Z,14.68
2023-05-23T01:32:49.096Z,14.66
2023-05-23T01:35:19.995Z,14.64
2023-05-23T01:37:48.682Z,14.63
2023-05-23T01:40:17.114Z,14.64
2023-05-23T01:42:45.416Z,14.64
2023-05-23T01:45:16.557Z,14.63
2023-05-23T01:47:44.874Z,14.60
2023-05-23T01:50:13.328Z,14.59
2023-05-23T01:52:41.704Z,14.60
2023-05-23T01:55:12.225Z,14.60
2023-05-23T01:57:40.724Z,14.60
2023-05-23T02:00:12.366Z,14.58
2023-05-23T02:02:45.207Z,14.57
2023-05-23T02:05:13.651Z,14.58
2023-05-23T02:07:41.971Z,14.56
2023-05-23T02:10:11.233Z,14.57
2023-05-23T02:12:39.756Z,14.56
2023-05-23T02:15:10.404Z,14.58
2023-05-23T02:17:41.477Z,14.60
2023-05-23T02:20:12.231Z,14.58
2023-05-23T02:22:40.550Z,14.59
2023-05-23T02:25:10.935Z,14.58
2023-05-23T02:27:41.201Z,14.59
2023-05-23T02:30:10.656Z,14.57
2023-05-23T02:32:39.110Z,14.56
2023-05-23T02:35:08.456Z,14.56
2023-05-23T02:37:38.351Z,14.56
2023-05-23T02:40:08.632Z,14.55
2023-05-23T02:42:38.045Z,14.56
2023-05-23T02:45:07.214Z,14.57
2023-05-23T02:47:35.929Z,14.55
2023-05-23T02:50:04.235Z,14.55
2023-05-23T02:52:33.638Z,14.55
2023-05-23T02:55:03.817Z,14.54
2023-05-23T02:57:39.435Z,14.54
2023-05-23T03:00:10.428Z,14.52
2023-05-23T03:02:39.354Z,14.51
2023-05-23T03:05:08.834Z,14.49
2023-05-23T03:07:38.470Z,14.47
2023-05-23T03:10:09.918Z,14.44
2023-05-23T03:12:38.282Z,14.42
2023-05-23T03:15:07.841Z,14.40
2023-05-23T03:17:38.987Z,14.40
2023-05-23T03:20:10.102Z,14.40
2023-05-23T03:22:42.019Z,14.38
2023-05-23T03:25:11.986Z,14.38
2023-05-23T03:27:40.379Z,14.37
2023-05-23T03:30:10.884Z,14.36
2023-05-23T03:32:39.505Z,14.36
2023-05-23T03:35:09.163Z,14.33
2023-05-23T03:37:37.616Z,14.34
2023-05-23T03:40:07.467Z,14.32
2023-05-23T03:42:38.116Z,14.32
2023-05-23T03:45:08.019Z,14.30
2023-05-23T03:47:36.507Z,14.31
2023-05-23T03:50:05.381Z,14.34
2023-05-23T03:52:35.018Z,14.31
2023-05-23T03:55:03.545Z,14.32
2023-05-23T03:57:32.141Z,14.32
2023-05-23T04:00:01.953Z,14.32
2023-05-23T04:02:32.906Z,14.32
2023-05-23T04:05:03.094Z,14.32
2023-05-23T04:07:34.617Z,14.37
2023-05-23T04:10:03.065Z,14.43
2023-05-23T04:12:31.749Z,14.48
2023-05-23T04:15:02.623Z,14.50
2023-05-23T04:17:32.457Z,14.53
2023-05-23T04:20:01.067Z,14.55
2023-05-23T04:22:29.538Z,14.59
2023-05-23T04:24:58.044Z,14.62
2023-05-23T04:27:30.988Z,14.66
2023-05-23T04:30:00.628Z,14.71
2023-05-23T04:32:30.547Z,14.76
2023-05-23T04:34:58.927Z,14.81
2023-05-23T04:37:27.742Z,14.84
2023-05-23T04:39:56.771Z,14.91
2023-05-23T04:42:58.028Z,14.95
2023-05-23T04:45:46.645Z,15.01
2023-05-23T04:48:37.452Z,15.04
2023-05-23T04:51:07.932Z,15.06
2023-05-23T04:53:41.302Z,15.03
2023-05-23T04:56:12.467Z,15.05
2023-05-23T04:58:42.354Z,15.03
2023-05-23T05:01:12.815Z,15.08
2023-05-23T05:03:42.864Z,15.10
2023-05-23T05:06:11.221Z,15.12
2023-05-23T05:08:42.213Z,15.16
2023-05-23T05:11:11.664Z,15.19
2023-05-23T05:13:40.430Z,15.25
2023-05-23T05:16:09.463Z,15.23
2023-05-23T05:18:37.815Z,15.27
2023-05-23T05:21:08.304Z,15.29
2023-05-23T05:23:39.923Z,15.29
2023-05-23T05:26:10.051Z,15.27
2023-05-23T05:28:39.452Z,15.22
2023-05-23T05:31:07.977Z,15.26
2023-05-23T05:33:37.833Z,15.23
2023-05-23T05:36:14.176Z,15.27
2023-05-23T05:38:43.122Z,15.27
2023-05-23T05:41:11.713Z,15.27
2023-05-23T05:43:48.358Z,15.36
2023-05-23T05:46:16.797Z,15.34
2023-05-23T05:48:45.769Z,15.40
2023-05-23T05:51:16.573Z,15.51
2023-05-23T05:53:46.500Z,15.56
2023-05-23T05:56:15.578Z,15.54
2023-05-23T05:58:43.969Z,15.57
2023-05-23T06:01:15.306Z,15.59
2023-05-23T06:03:44.707Z,15.64
2023-05-23T06:06:14.412Z,15.68
2023-05-23T06:08:44.858Z,15.72
2023-05-23T06:11:17.456Z,15.74
2023-05-23T06:13:46.349Z,15.73
2023-05-23T06:16:15.372Z,15.71
2023-05-23T06:18:45.532Z,15.69
2023-05-23T06:21:13.836Z,15.62
2023-05-23T06:23:44.158Z,15.53
2023-05-23T06:26:12.581Z,15.51
2023-05-23T06:28:40.958Z,15.51
2023-05-23T06:31:10.327Z,15.51
2023-05-23T06:33:38.959Z,15.54
2023-05-23T06:36:07.564Z,15.45
2023-05-23T06:38:35.960Z,15.44
2023-05-23T06:41:07.270Z,15.47
2023-05-23T06:43:37.273Z,15.42
2023-05-23T06:46:25.386Z,15.40
2023-05-23T06:49:03.007Z,15.42
2023-05-23T06:51:42.210Z,15.41
2023-05-23T06:54:10.771Z,15.44
2023-05-23T06:56:40.966Z,15.44
2023-05-23T06:59:10.043Z,15.53
2023-05-23T07:01:38.798Z,15.58
2023-05-23T07:04:07.326Z,15.65
2023-05-23T07:06:37.027Z,15.74
2023-05-23T07:09:07.127Z,15.80
2023-05-23T07:11:36.970Z,15.86
2023-05-23T07:14:08.068Z,15.94
2023-05-23T07:16:43.375Z,16.07
2023-05-23T07:19:13.352Z,16.15
2023-05-23T07:21:46.553Z,16.08
2023-05-23T07:24:17.981Z,16.07
2023-05-23T07:26:46.856Z,16.08
2023-05-23T07:29:17.313Z,15.98
2023-05-23T07:31:48.068Z,16.02
2023-05-23T07:34:16.682Z,16.02
2023-05-23T07:37:03.474Z,16.00
2023-05-23T07:39:39.762Z,15.98
2023-05-23T07:42:08.366Z,16.00
2023-05-23T07:44:38.330Z,15.93
2023-05-23T07:47:07.715Z,15.95
2023-05-23T07:49:36.005Z,16.02
2023-05-23T07:52:07.104Z,16.01
2023-05-23T07:54:36.666Z,16.09
2023-05-23T07:57:07.478Z,16.14
2023-05-23T07:59:37.415Z,16.23
2023-05-23T08:02:06.304Z,16.23
2023-05-23T08:04:34.856Z,16.23
2023-05-23T08:07:06.328Z,16.20
2023-05-23T08:09:56.923Z,15.98
2023-05-23T08:12:25.286Z,15.68
2023-05-23T08:15:03.953Z,15.36
2023-05-23T08:17:39.797Z,15.16
2023-05-23T08:20:12.145Z,15.00
2023-05-23T08:22:40.728Z,14.88
2023-05-23T08:25:09.757Z,14.76
2023-05-23T08:27:40.812Z,14.63
2023-05-23T08:30:28.524Z,14.48
2023-05-23T08:32:57.069Z,14.44
2023-05-23T08:35:25.785Z,14.44
2023-05-23T08:37:54.172Z,14.41
2023-05-23T08:40:23.834Z,14.41
2023-05-23T08:42:59.434Z,14.43
2023-05-23T08:45:30.557Z,14.46
2023-05-23T08:48:01.666Z,14.53
2023-05-23T08:50:32.353Z,14.54
2023-05-23T08:53:01.367Z,14.56
2023-05-23T08:55:31.788Z,14.61
2023-05-23T08:58:03.716Z,14.71
2023-05-23T09:00:54.440Z,14.88
2023-05-23T09:03:23.969Z,15.06
2023-05-23T09:06:07.984Z,15.20
2023-05-23T09:08:36.701Z,15.37
2023-05-23T09:11:05.320Z,15.58
2023-05-23T09:13:37.719Z,15.77
2023-05-23T09:16:11.403Z,15.93
2023-05-23T09:18:48.133Z,16.17
2023-05-23T09:21:18.449Z,16.41
2023-05-23T09:24:02.082Z,16.55
2023-05-23T09:26:30.448Z,16.84
2023-05-23T09:28:59.139Z,17.06
2023-05-23T09:31:29.935Z,17.12
2023-05-23T09:33:58.972Z,17.10
2023-05-23T09:36:30.597Z,16.96
2023-05-23T09:38:59.472Z,16.80
2023-05-23T09:41:31.896Z,16.73
2023-05-23T09:44:01.510Z,16.64
2023-05-23T09:46:31.446Z,17.18
2023-05-23T09:49:00.377Z,17.56
2023-05-23T09:51:28.772Z,17.65
2023-05-23T09:53:57.718Z,17.91
2023-05-23T09:56:26.705Z,17.87
2023-05-23T09:58:55.402Z,17.78
2023-05-23T10:01:23.766Z,17.55
2023-05-23T10:04:00.023Z,17.61
2023-05-23T10:06:31.622Z,17.86
2023-05-23T10:09:05.768Z,17.85
2023-05-23T10:12:15.595Z,17.66
2023-05-23T10:14:45.805Z,17.66
2023-05-23T10:17:17.108Z,17.67
2023-05-23T10:19:49.900Z,17.59
2023-05-23T10:22:18.269Z,17.50
2023-05-23T10:24:46.862Z,17.35
2023-05-23T10:27:16.079Z,17.28
2023-05-23T10:29:44.696Z,17.13
2023-05-23T10:32:13.063Z,16.99
2023-05-23T10:34:43.421Z,16.91
2023-05-23T10:37:16.686Z,16.79
2023-05-23T10:39:51.411Z,16.78
2023-05-23T10:42:21.859Z,16.75
2023-05-23T10:44:50.168Z,16.62
2023-05-23T10:47:27.464Z,16.54
2023-05-23T10:49:56.414Z,16.62
2023-05-23T10:52:27.823Z,16.73
2023-05-23T10:54:56.384Z,16.86
2023-05-23T10:57:27.905Z,17.03
2023-05-23T10:59:56.280Z,17.26
2023-05-23T11:02:27.595Z,17.36
2023-05-23T11:05:19.745Z,17.36
2023-05-23T11:07:50.783Z,17.24
2023-05-23T11:10:19.378Z,17.10
2023-05-23T11:12:47.868Z,17.00
2023-05-23T11:15:22.174Z,16.77
2023-05-23T11:17:54.970Z,16.76
2023-05-23T11:20:27.726Z,16.86
2023-05-23T11:23:03.062Z,16.99
2023-05-23T11:25:44.161Z,17.06
2023-05-23T11:28:13.053Z,17.12
2023-05-23T11:30:41.528Z,17.05
2023-05-23T11:33:13.557Z,16.88
2023-05-23T11:35:42.654Z,16.76
2023-05-23T11:38:12.363Z,16.69
2023-05-23T11:40:41.810Z,16.58
2023-05-23T11:43:11.550Z,16.31
2023-05-23T11:45:40.175Z,16.09
2023-05-23T11:48:09.779Z,15.96
2023-05-23T11:50:45.226Z,15.94
2023-05-23T11:53:17.242Z,15.89
2023-05-23T11:55:50.580Z,15.75
2023-05-23T11:58:18.974Z,15.49
2023-05-23T12:00:47.844Z,15.28
2023-05-23T12:03:16.609Z,15.23
2023-05-23T12:05:46.196Z,15.16
2023-05-23T12:08:15.945Z,15.16
2023-05-23T12:10:54.111Z,15.25
2023-05-23T12:13:25.096Z,15.28
2023-05-23T12:15:56.295Z,15.36
2023-05-23T12:18:24.924Z,15.44
2023-05-23T12:20:53.398Z,15.27
2023-05-23T12:23:23.260Z,15.13
2023-05-23T12:25:53.081Z,15.13
2023-05-23T12:28:21.930Z,15.11
2023-05-23T12:30:50.504Z,15.07
2023-05-23T12:33:21.317Z,15.03
2023-05-23T12:35:49.635Z,15.09
2023-05-23T12:38:18.577Z,15.09
2023-05-23T12:40:48.303Z,15.08
2023-05-23T12:43:17.109Z,15.11
2023-05-23T12:45:45.447Z,15.14
2023-05-23T12:48:14.204Z,15.18
2023-05-23T12:50:42.546Z,15.19
2023-05-23T12:53:10.913Z,15.18
2023-05-23T12:55:39.663Z,14.98
2023-05-23T12:58:09.515Z,14.95
2023-05-23T13:00:37.892Z,14.97
2023-05-23T13:03:06.682Z,14.99
2023-05-23T13:05:35.046Z,15.00
2023-05-23T13:08:03.573Z,14.99
2023-05-23T13:10:32.420Z,14.96
2023-05-23T13:13:00.859Z,14.89
2023-05-23T13:15:30.983Z,14.79
2023-05-23T13:17:59.444Z,14.79
2023-05-23T13:20:30.255Z,14.75
2023-05-23T13:22:59.118Z,14.66
2023-05-23T13:25:27.438Z,14.62
2023-05-23T13:27:56.069Z,14.61
2023-05-23T13:30:24.690Z,14.50
2023-05-23T13:32:54.692Z,14.45
2023-05-23T13:35:23.068Z,14.42
2023-05-23T13:37:51.968Z,14.38
2023-05-23T13:40:21.077Z,14.26
2023-05-23T13:42:51.025Z,14.19
2023-05-23T13:45:19.572Z,14.21
2023-05-23T13:47:47.932Z,14.19
2023-05-23T13:50:18.110Z,14.19
2023-05-23T13:52:49.007Z,14.16
2023-05-23T13:55:18.789Z,14.15
2023-05-23T13:57:47.401Z,14.14
2023-05-23T14:00:16.501Z,14.10
2023-05-23T14:02:45.031Z,14.14
2023-05-23T14:05:13.673Z,14.13
2023-05-23T14:07:47.265Z,14.15
2023-05-23T14:10:17.415Z,14.06
2023-05-23T14:12:46.117Z,14.04
2023-05-23T14:15:14.537Z,13.97
2023-05-23T14:17:43.166Z,13.97
2023-05-23T14:20:12.236Z,13.92
2023-05-23T14:22:40.559Z,13.94
2023-05-23T14:25:11.167Z,13.98
2023-05-23T14:27:40.282Z,14.03
2023-05-23T14:30:10.168Z,14.02
2023-05-23T14:32:39.600Z,13.98
2023-05-23T14:35:08.714Z,13.93
2023-05-23T14:37:37.077Z,13.94
2023-05-23T14:40:06.762Z,13.91
2023-05-23T14:42:36.782Z,13.84
2023-05-23T14:45:06.427Z,13.83
2023-05-23T14:47:35.560Z,13.78
2023-05-23T14:50:03.929Z,13.80
2023-05-23T14:52:32.238Z,13.79
2023-05-23T14:55:01.184Z,13.82
2023-05-23T14:57:29.802Z,13.86
2023-05-23T14:59:59.658Z,13.84
2023-05-23T15:02:28.228Z,13.86
2023-05-23T15:04:56.730Z,13.86
2023-05-23T15:07:25.026Z,13.86
2023-05-23T15:09:53.825Z,13.87
2023-05-23T15:12:22.426Z,13.83
2023-05-23T15:14:50.959Z,13.82
2023-05-23T15:17:24.989Z,13.79
2023-05-23T15:19:56.994Z,13.73
2023-05-23T15:24:59.801Z,13.69
2023-05-23T15:27:28.157Z,13.67
2023-05-23T15:29:56.524Z,13.71
2023-05-23T15:32:26.313Z,13.68
2023-05-23T15:34:54.833Z,13.67
2023-05-23T15:37:23.140Z,13.68
2023-05-23T15:39:51.880Z,13.71
2023-05-23T15:42:20.255Z,13.64
2023-05-23T15:44:48.552Z,13.66
2023-05-23T15:47:16.951Z,13.69
2023-05-23T15:49:46.670Z,13.58
2023-05-23T15:52:15.228Z,13.48
2023-05-23T15:54:43.543Z,13.31
2023-05-23T15:57:12.053Z,13.22
2023-05-23T15:59:40.554Z,13.16
2023-05-23T16:02:10.307Z,13.08
2023-05-23T16:04:39.079Z,13.15
2023-05-23T16:07:09.198Z,13.15
2023-05-23T16:09:37.546Z,13.13
2023-05-23T16:12:06.422Z,13.07
2023-05-23T16:14:34.801Z,13.11
2023-05-23T16:17:05.091Z,13.12
2023-05-23T16:19:33.834Z,13.11
2023-05-23T16:22:02.235Z,13.07
2023-05-23T16:24:31.994Z,13.01
2023-05-23T16:27:01.288Z,12.93
2023-05-23T16:29:29.798Z,12.90
2023-05-23T16:31:58.717Z,12.85
2023-05-23T16:34:27.136Z,12.75
2023-05-23T16:36:55.467Z,12.77
2023-05-23T16:39:23.805Z,12.82
2023-05-23T16:41:53.499Z,12.74
2023-05-23T16:44:21.903Z,12.62
2023-05-23T16:46:50.624Z,12.61
2023-05-23T16:49:19.015Z,12.56
2023-05-23T16:51:48.702Z,12.58
2023-05-23T16:54:17.295Z,12.56
2023-05-23T16:56:45.685Z,12.41
2023-05-23T16:59:15.360Z,12.36
2023-05-23T17:01:43.759Z,12.30
2023-05-23T17:04:12.112Z,12.29
2023-05-23T17:06:40.444Z,12.22
2023-05-23T17:09:09.044Z,12.24
2023-05-23T17:11:37.660Z,12.23
2023-05-23T17:14:06.394Z,12.21
2023-05-23T17:16:36.240Z,12.20
2023-05-23T17:19:05.701Z,12.21
2023-05-23T17:21:34.137Z,12.21
2023-05-23T17:24:02.426Z,12.13
2023-05-23T17:26:30.742Z,12.10
2023-05-23T17:28:59.383Z,12.04
2023-05-23T17:31:29.791Z,11.92
2023-05-23T17:34:00.352Z,11.88
2023-05-23T17:36:28.700Z,11.87
2023-05-23T17:38:57.016Z,11.85
2023-05-23T17:41:26.930Z,11.87
2023-05-23T17:43:55.670Z,11.87
2023-05-23T17:46:24.038Z,11.73
2023-05-23T17:48:53.394Z,11.75
2023-05-23T17:51:23.544Z,11.75
2023-05-23T17:53:53.962Z,11.73
2023-05-23T17:56:23.501Z,11.68
2023-05-23T17:58:52.712Z,11.54
2023-05-23T18:01:22.176Z,11.52
2023-05-23T18:03:53.700Z,11.52
2023-05-23T18:06:23.489Z,11.52
2023-05-23T18:08:51.840Z,11.53
2023-05-23T18:11:20.673Z,11.56
2023-05-23T18:13:49.048Z,11.57
2023-05-23T18:16:17.697Z,11.49
2023-05-23T18:18:46.090Z,11.44
2023-05-23T18:21:15.750Z,11.41
2023-05-23T18:23:47.212Z,11.42
2023-05-23T18:26:15.959Z,11.41
2023-05-23T18:28:44.322Z,11.44
2023-05-23T18:31:12.684Z,11.47
2023-05-23T18:33:41.120Z,11.46
2023-05-23T18:36:10.021Z,11.46
2023-05-23T18:38:38.975Z,11.43
2023-05-23T18:41:12.554Z,11.36
2023-05-23T18:43:43.063Z,11.29
2023-05-23T18:46:11.419Z,11.08
2023-05-23T18:48:40.840Z,10.93
2023-05-23T18:51:09.573Z,10.94
2023-05-23T18:53:38.410Z,10.85
2023-05-23T18:56:09.255Z,10.85
2023-05-23T18:58:37.611Z,10.81
2023-05-23T19:01:07.139Z,10.74
2023-05-23T19:03:37.278Z,10.73
2023-05-23T19:06:06.438Z,10.73
2023-05-23T19:08:34.815Z,10.72
2023-05-23T19:11:03.153Z,10.76
2023-05-23T19:13:32.957Z,10.76
2023-05-23T19:16:01.319Z,10.75
2023-05-23T19:18:30.194Z,10.69
2023-05-23T19:20:58.522Z,10.59
2023-05-23T19:23:28.091Z,10.67
2023-05-23T19:25:56.429Z,10.70
2023-05-23T19:28:24.847Z,10.70
2023-05-23T19:30:54.592Z,10.72
2023-05-23T19:33:23.439Z,10.71
2023-05-23T19:35:51.815Z,10.72
2023-05-23T19:38:20.140Z,10.70
2023-05-23T19:40:48.674Z,10.71
2023-05-23T19:43:17.185Z,10.66
2023-05-23T19:45:45.822Z,10.65
2023-05-23T19:48:16.120Z,10.63
2023-05-23T19:50:44.758Z,10.52
2023-05-23T19:53:13.676Z,10.48
2023-05-23T19:55:42.762Z,10.39
2023-05-23T19:58:11.894Z,10.41
2023-05-23T20:00:40.407Z,10.44
2023-05-23T20:03:09.409Z,10.41
2023-05-23T20:05:39.321Z,10.46
2023-05-23T20:08:08.152Z,10.38
2023-05-23T20:10:36.494Z,10.43
2023-05-23T20:13:05.146Z,10.41
2023-05-23T20:15:39.910Z,10.41
2023-05-23T20:18:09.003Z,10.40
2023-05-23T20:20:38.990Z,10.45
2023-05-23T20:23:07.610Z,10.39
2023-05-23T20:25:36.377Z,10.44
2023-05-23T20:28:04.873Z,10.47
2023-05-23T20:30:33.359Z,10.48
2023-05-23T20:33:01.994Z,10.41
2023-05-23T20:35:31.105Z,10.33
2023-05-23T20:38:00.811Z,10.34
2023-05-23T20:40:29.766Z,10.33
2023-05-23T20:43:04.613Z,10.34
2023-05-23T20:45:33.460Z,10.30
2023-05-23T20:48:01.917Z,10.30
2023-05-23T20:50:31.374Z,10.31
2023-05-23T20:53:02.620Z,10.33
2023-05-23T20:55:31.071Z,10.32
2023-05-23T20:57:59.677Z,10.36
2023-05-23T21:00:27.983Z,10.37
2023-05-23T21:02:56.406Z,10.37
2023-05-23T21:05:24.948Z,10.39
2023-05-23T21:07:53.681Z,10.41
2023-05-23T21:10:23.448Z,10.38
2023-05-23T21:12:51.949Z,10.41
2023-05-23T21:15:20.237Z,10.39
2023-05-23T21:17:48.544Z,10.41
2023-05-23T21:20:17.210Z,10.41
2023-05-23T21:22:45.615Z,10.39
2023-05-23T21:25:13.974Z,10.40
2023-05-23T21:27:43.761Z,10.39
2023-05-23T21:30:13.093Z,10.38
2023-05-23T21:32:41.635Z,10.36
2023-05-23T21:35:11.049Z,10.34
2023-05-23T21:37:39.403Z,10.34
2023-05-23T21:40:09.152Z,10.33
2023-05-23T21:42:37.467Z,10.35
2023-05-23T21:45:08.618Z,10.35
2023-05-23T21:47:37.241Z,10.34
2023-05-23T21:50:06.320Z,10.32
2023-05-23T21:52:34.715Z,10.22
2023-05-23T21:55:03.110Z,10.09
2023-05-23T21:57:31.415Z,10.05
2023-05-23T22:00:00.191Z,9.99
2023-05-23T22:02:30.023Z,9.93
2023-05-23T22:04:58.366Z,9.93
2023-05-23T22:07:26.956Z,9.91
2023-05-23T22:09:56.357Z,9.83
2023-05-23T22:12:25.471Z,9.79
2023-05-23T22:14:55.660Z,9.77
2023-05-23T22:17:26.447Z,9.73
2023-05-23T22:19:57.179Z,9.68
2023-05-23T22:22:25.586Z,9.61
2023-05-23T22:24:53.920Z,9.52
2023-05-23T22:27:22.290Z,9.54
2023-05-23T22:29:50.858Z,9.58
2023-05-23T22:32:19.464Z,9.51
2023-05-23T22:34:47.846Z,9.47
2023-05-23T22:37:17.697Z,9.53
2023-05-23T22:39:46.065Z,9.53
2023-05-23T22:42:14.693Z,9.53
2023-05-23T22:44:43.231Z,9.55
2023-05-23T22:47:13.713Z,9.53
2023-05-23T22:49:43.668Z,9.52
2023-05-23T22:52:12.012Z,9.53
2023-05-23T22:54:41.853Z,9.51
2023-05-23T22:57:10.602Z,9.49
2023-05-23T22:59:39.033Z,9.46
2023-05-23T23:02:09.809Z,9.44
2023-05-23T23:04:40.306Z,9.41
2023-05-23T23:07:08.820Z,9.26
2023-05-23T23:09:37.131Z,9.27
2023-05-23T23:12:07.953Z,9.19
2023-05-23T23:14:36.516Z,9.17
2023-05-23T23:17:05.188Z,9.15
2023-05-23T23:19:35.339Z,9.14
2023-05-23T23:22:04.410Z,9.14
2023-05-23T23:24:33.279Z,9.15
2023-05-23T23:27:01.755Z,9.13
2023-05-23T23:29:31.594Z,9.04
2023-05-23T23:31:59.996Z,9.01
2023-05-23T23:34:28.270Z,8.96
2023-05-23T23:36:56.876Z,8.94
2023-05-23T23:39:25.192Z,8.95
2023-05-23T23:41:53.507Z,8.90
2023-05-23T23:44:21.842Z,8.89
2023-05-23T23:46:51.634Z,8.92
2023-05-23T23:49:20.653Z,8.93
2023-05-23T23:51:49.228Z,8.91
2023-05-23T23:54:17.798Z,8.92
2023-05-23T23:56:46.126Z,8.92
2023-05-23T23:59:14.478Z,8.91
